Aviation Digital Data Service (ADDS)

Output produced by TAFs form (2014 UTC 05 March 2015)
found at http://aviationweather.gov/adds/tafs/
 
KPUB 051735Z 0518/0618 09005KT P6SM SCT250 
     FM060200 VRB05KT P6SM SCT250